Rio Blanco, Puerto Rico
Current Conditions -  °F | °C
As of 12:53 PM on Thursday 27 Nov 2014 (Local Time) from TJNR Reporting Station
Clear Clear  
Wind Chill: 83°   Ceiling: Unl
Heat Index: 87°   Visibility: 10mi
Dew Point: 70°   Wind: 7mph
Humidity: 65%   Direction: 50°NE
Pressure: 29.98"   Gusts: NA
Location:  18.21°N, 65.79°W
Report Text: TJNR 271653Z AUTO 05006KT 10SM CLR 28/21 A2998 RMK AO2 SLP152 T02830211 $
Loading
Personal Weather Stations






























Interactive Weather Map New forecast layout! Learn more

10-Day Weather Forecast

Advertisements
Track Severe Weather on mobile